Time;durP1;ratioP1;P1;durP2;ratioP2;P2;SDS_P1;SDS_P2;PMS_P1;PMS_P2;Temp;Humidity;BMP_temperature;BMP_pressure;BME280_temperature;BME280_humidity;BME280_pressure;Samples;Min_cycle;Max_cycle;Signal;HPM_P1;HPM_P2
2024/04/01 00:00:34;;;;;;;3.72;1.73;;;21.60;60.80;;;;;;4945095;28;93210;-68
2024/04/01 00:03:00;;;;;;;4.45;2.15;;;21.60;60.70;;;;;;4943756;28;92668;-67
2024/04/01 00:05:26;;;;;;;3.22;1.60;;;21.60;60.60;;;;;;4946922;28;92371;-67
2024/04/01 00:07:52;;;;;;;3.70;1.70;;;21.60;60.80;;;;;;4965559;28;92385;-68
2024/04/01 00:10:20;;;;;;;3.53;1.23;;;21.60;60.80;;;;;;4964213;28;93556;-68
2024/04/01 00:12:45;;;;;;;4.10;1.70;;;21.60;60.60;;;;;;4965883;28;92287;-68
2024/04/01 00:15:11;;;;;;;4.00;1.83;;;21.60;60.60;;;;;;4965467;28;92639;-67
2024/04/01 00:17:37;;;;;;;3.05;1.38;;;21.60;60.60;;;;;;4965069;28;93181;-69
2024/04/01 00:20:04;;;;;;;2.80;1.40;;;21.60;60.60;;;;;;4957468;28;94134;-66
2024/04/01 00:22:31;;;;;;;3.00;1.50;;;21.60;60.60;;;;;;4946489;28;93829;-67
2024/04/01 00:24:56;;;;;;;5.05;2.03;;;21.60;60.50;;;;;;4945508;28;92172;-68
2024/04/01 00:27:22;;;;;;;2.35;1.38;;;21.50;60.60;;;;;;4945998;28;92383;-69
2024/04/01 00:29:47;;;;;;;4.68;2.45;;;21.60;60.50;;;;;;4946694;28;93114;-68
2024/04/01 00:32:13;;;;;;;3.47;1.60;;;21.50;60.60;;;;;;4946871;28;92641;-68
2024/04/01 00:34:39;;;;;;;3.80;1.45;;;21.50;60.60;;;;;;4949427;28;92664;-68
2024/04/01 00:37:05;;;;;;;2.47;1.23;;;21.50;60.60;;;;;;4948403;28;91749;-67
2024/04/01 00:41:56;;;;;;;3.25;1.48;;;21.50;60.40;;;;;;4945706;28;93155;-70
2024/04/01 00:44:23;;;;;;;5.45;1.50;;;21.50;60.40;;;;;;4945046;28;93567;-69
2024/04/01 00:46:53;;;;;;;3.65;1.58;;;21.50;60.50;;;;;;4946199;28;92769;-68
2024/04/01 00:49:22;;;;;;;2.28;1.42;;;21.50;60.30;;;;;;4943422;28;93747;-70
2024/04/01 00:51:48;;;;;;;5.93;1.70;;;21.50;60.30;;;;;;4961988;28;93981;-68
2024/04/01 00:54:15;;;;;;;4.22;1.50;;;21.40;60.40;;;;;;4945592;28;92059;-68
2024/04/01 00:56:45;;;;;;;2.47;1.25;;;21.50;60.40;;;;;;4944518;28;92107;-68
2024/04/01 00:59:11;;;;;;;;;;;21.50;60.40;;;;;;4945016;28;93114;-67
2024/04/01 01:01:36;;;;;;;3.67;1.58;;;21.50;60.40;;;;;;4949105;28;91909;-67
2024/04/01 01:04:04;;;;;;;3.03;1.27;;;21.50;60.40;;;;;;4950229;28;92396;-68
2024/04/01 01:06:30;;;;;;;2.83;1.35;;;21.50;60.20;;;;;;4951245;28;92379;-67
2024/04/01 01:08:57;;;;;;;2.47;1.20;;;21.50;60.10;;;;;;4947890;28;96733;-67
2024/04/01 01:11:23;;;;;;;3.63;1.50;;;21.40;60.10;;;;;;4949199;28;93778;-68
2024/04/01 01:13:51;;;;;;;2.83;1.83;;;21.40;60.20;;;;;;4949839;28;92789;-68
2024/04/01 01:16:17;;;;;;;2.70;1.48;;;21.40;60.30;;;;;;4946086;28;92572;-68
2024/04/01 01:18:43;;;;;;;2.25;1.23;;;21.40;60.10;;;;;;4949289;28;94788;-68
2024/04/01 01:21:09;;;;;;;3.33;1.40;;;21.40;60.10;;;;;;4947990;28;94067;-69
2024/04/01 01:23:35;;;;;;;2.20;1.10;;;21.40;60.10;;;;;;4950171;28;92410;-69
2024/04/01 01:26:01;;;;;;;2.10;1.20;;;21.40;60.10;;;;;;4949425;28;91243;-66
2024/04/01 01:28:29;;;;;;;2.65;1.38;;;21.40;60.10;;;;;;4950278;28;94171;-67
2024/04/01 01:30:57;;;;;;;3.42;1.40;;;21.40;60.20;;;;;;4947071;28;94376;-67
2024/04/01 01:33:25;;;;;;;3.53;1.48;;;21.40;60.00;;;;;;4946719;28;93055;-67
2024/04/01 01:35:51;;;;;;;1.48;1.13;;;21.40;60.00;;;;;;4948079;28;92375;-68
2024/04/01 01:38:18;;;;;;;2.00;1.20;;;21.40;60.00;;;;;;4948497;28;92358;-68
2024/04/01 01:40:44;;;;;;;2.13;1.38;;;21.40;60.10;;;;;;4948272;28;92795;-68
2024/04/01 01:43:11;;;;;;;3.55;1.65;;;21.30;60.10;;;;;;4965136;28;92608;-69
2024/04/01 01:45:36;;;;;;;3.08;1.63;;;21.40;60.10;;;;;;4948067;28;92385;-68
2024/04/01 01:48:02;;;;;;;2.28;0.90;;;21.30;59.80;;;;;;4947658;28;93194;-67
2024/04/01 01:50:29;;;;;;;2.45;1.13;;;21.30;60.00;;;;;;4949626;28;92865;-67
2024/04/01 01:52:56;;;;;;;3.17;1.20;;;21.30;60.00;;;;;;4950822;28;92695;-67
2024/04/01 01:55:21;;;;;;;2.45;1.30;;;21.30;59.80;;;;;;4944984;28;93137;-67
2024/04/01 01:57:48;;;;;;;4.22;1.83;;;21.30;59.80;;;;;;4948250;28;93311;-68
2024/04/01 02:00:14;;;;;;;2.03;1.23;;;21.40;59.90;;;;;;4950185;28;93948;-67
2024/04/01 02:02:40;;;;;;;2.00;1.10;;;21.30;59.80;;;;;;4948731;28;92378;-67
2024/04/01 02:05:06;;;;;;;1.77;0.95;;;21.30;59.80;;;;;;4947687;28;92338;-67
2024/04/01 02:07:32;;;;;;;2.45;1.17;;;21.30;59.70;;;;;;4949712;28;93765;-67
2024/04/01 02:09:58;;;;;;;2.97;1.58;;;21.30;59.80;;;;;;4948779;28;92729;-68
2024/04/01 02:12:24;;;;;;;2.30;1.20;;;21.30;59.80;;;;;;4948495;28;92487;-68
2024/04/01 02:14:51;;;;;;;2.53;1.20;;;21.30;59.70;;;;;;4949364;28;92470;-68
2024/04/01 02:17:16;;;;;;;3.28;1.27;;;21.30;59.60;;;;;;4942968;28;92688;-68
2024/04/01 02:19:46;;;;;;;2.97;1.20;;;21.30;59.80;;;;;;4968847;28;93528;-66
2024/04/01 02:22:12;;;;;;;;;;;21.30;59.70;;;;;;4968330;28;93262;-67
2024/04/01 02:24:44;;;;;;;3.10;1.10;;;21.30;59.60;;;;;;4967827;28;92543;-67
2024/04/01 02:27:11;;;;;;;2.47;1.42;;;21.30;59.70;;;;;;4966327;28;94629;-67
2024/04/01 02:29:38;;;;;;;2.25;1.08;;;21.20;59.60;;;;;;4950715;28;93576;-67
2024/04/01 02:32:04;;;;;;;2.65;1.13;;;21.20;59.70;;;;;;4978221;28;92645;-68
2024/04/01 02:34:32;;;;;;;1.80;1.23;;;21.30;59.60;;;;;;4961086;28;92114;-67
2024/04/01 02:36:58;;;;;;;1.92;1.00;;;21.20;59.60;;;;;;4945858;28;95889;-68
2024/04/01 02:39:24;;;;;;;2.25;1.23;;;21.20;59.70;;;;;;4943578;28;93133;-69
2024/04/01 02:41:51;;;;;;;4.07;1.50;;;21.20;59.60;;;;;;4964502;28;93445;-68
2024/04/01 02:44:17;;;;;;;2.90;1.30;;;21.20;59.50;;;;;;4941813;28;92119;-67
2024/04/01 02:46:45;;;;;;;1.35;0.80;;;21.20;59.60;;;;;;4947723;28;93901;-66
2024/04/01 02:49:11;;;;;;;1.90;1.02;;;21.20;59.50;;;;;;4962458;28;94556;-67
2024/04/01 02:51:38;;;;;;;2.50;1.30;;;21.20;59.40;;;;;;4949293;28;92396;-68
2024/04/01 02:54:05;;;;;;;3.20;1.20;;;21.20;59.40;;;;;;4946816;28;92869;-69
2024/04/01 02:56:32;;;;;;;1.33;0.88;;;21.20;59.40;;;;;;4947013;28;94160;-67
2024/04/01 02:59:13;;;;;;;2.65;1.25;;;21.20;59.50;;;;;;4949397;28;92841;-69
2024/04/01 03:01:42;;;;;;;3.78;1.27;;;21.20;59.40;;;;;;4962044;28;92439;-68
2024/04/01 03:04:08;;;;;;;2.90;1.42;;;21.20;59.60;;;;;;4949094;28;91299;-68
2024/04/01 03:06:34;;;;;;;1.75;1.00;;;21.20;59.50;;;;;;4948500;28;93877;-67
2024/04/01 03:09:00;;;;;;;2.83;1.58;;;21.20;59.50;;;;;;4945700;28;92733;-67
2024/04/01 03:11:27;;;;;;;3.47;1.52;;;21.20;59.40;;;;;;4948092;28;93625;-66
2024/04/01 03:13:53;;;;;;;2.53;1.08;;;21.20;59.50;;;;;;4947601;28;92301;-67
2024/04/01 03:16:20;;;;;;;1.80;1.00;;;21.20;59.50;;;;;;4948074;28;94501;-69
2024/04/01 03:18:46;;;;;;;1.70;1.15;;;21.20;59.40;;;;;;4946416;28;92599;-69
2024/04/01 03:21:12;;;;;;;1.90;1.30;;;21.10;59.40;;;;;;4948850;28;92104;-66
2024/04/01 03:23:38;;;;;;;2.10;1.10;;;21.10;59.40;;;;;;4949349;28;92399;-67
2024/04/01 03:26:05;;;;;;;2.50;0.90;;;21.10;59.40;;;;;;4946082;28;93681;-68
2024/04/01 03:28:31;;;;;;;1.73;1.00;;;21.20;59.40;;;;;;4941869;28;92311;-68
2024/04/01 03:31:03;;;;;;;2.38;0.93;;;21.20;59.40;;;;;;4956323;28;93607;-67
2024/04/01 03:33:29;;;;;;;1.92;1.25;;;21.20;59.30;;;;;;4946747;28;92355;-69
2024/04/01 03:35:56;;;;;;;2.53;1.10;;;21.10;59.20;;;;;;4946026;28;95597;-68
2024/04/01 03:38:21;;;;;;;1.23;0.95;;;21.10;59.20;;;;;;4948218;28;93714;-68
2024/04/01 03:40:47;;;;;;;1.35;0.90;;;21.10;59.20;;;;;;4940752;28;92267;-68
2024/04/01 03:43:13;;;;;;;2.20;1.33;;;21.10;59.10;;;;;;4946200;28;92270;-68
2024/04/01 03:45:39;;;;;;;2.63;0.82;;;21.10;59.20;;;;;;4944506;28;94957;-68
2024/04/01 03:48:07;;;;;;;2.65;1.20;;;21.10;59.20;;;;;;4948178;28;92471;-66
2024/04/01 03:50:40;;;;;;;2.28;1.30;;;21.10;59.20;;;;;;4949102;28;92749;-67
2024/04/01 03:53:06;;;;;;;1.88;1.05;;;21.10;59.30;;;;;;4945949;28;92103;-69
2024/04/01 03:55:31;;;;;;;1.55;0.90;;;21.10;59.30;;;;;;4942219;28;93781;-69
2024/04/01 03:57:57;;;;;;;2.58;1.40;;;21.10;59.40;;;;;;4944774;28;93971;-67
2024/04/01 04:00:23;;;;;;;1.80;1.10;;;21.10;59.20;;;;;;4946026;28;93072;-67
2024/04/01 04:02:48;;;;;;;1.95;1.10;;;21.10;59.10;;;;;;4947844;28;92358;-67
2024/04/01 04:05:14;;;;;;;1.55;1.10;;;21.10;59.20;;;;;;4944801;28;93308;-67
2024/04/01 04:07:41;;;;;;;1.50;0.95;;;21.10;59.20;;;;;;4948386;28;92895;-68
2024/04/01 04:10:11;;;;;;;1.55;1.15;;;21.10;59.20;;;;;;4946276;28;92749;-69
2024/04/01 04:12:37;;;;;;;1.45;0.80;;;21.10;59.20;;;;;;4944582;28;92880;-69
2024/04/01 04:15:03;;;;;;;2.75;1.30;;;21.10;59.50;;;;;;4945516;28;94152;-67
2024/04/01 04:17:30;;;;;;;1.65;1.00;;;21.10;59.20;;;;;;4948577;28;92958;-67
2024/04/01 04:19:55;;;;;;;2.20;1.20;;;21.10;59.20;;;;;;4949642;28;92444;-68
2024/04/01 04:22:21;;;;;;;1.85;0.82;;;21.10;59.20;;;;;;4943877;28;92447;-66
2024/04/01 04:24:47;;;;;;;2.50;0.80;;;21.00;59.20;;;;;;4941511;28;95524;-69
2024/04/01 04:27:13;;;;;;;1.67;0.90;;;21.10;59.10;;;;;;4941476;28;94610;-67
2024/04/01 04:29:38;;;;;;;1.45;0.80;;;21.10;59.20;;;;;;4946449;28;92385;-67
2024/04/01 04:32:12;;;;;;;1.88;1.15;;;21.00;59.40;;;;;;4948144;28;92603;-68
2024/04/01 04:34:38;;;;;;;2.22;0.98;;;21.00;59.10;;;;;;4947572;28;92740;-67
2024/04/01 04:37:06;;;;;;;2.47;0.88;;;21.00;59.00;;;;;;4948093;28;93436;-66
2024/04/01 04:39:35;;;;;;;2.67;1.15;;;21.00;59.00;;;;;;4951345;28;92034;-67
2024/04/01 04:42:02;;;;;;;1.70;0.82;;;21.00;58.90;;;;;;4948961;28;92431;-69
2024/04/01 04:44:28;;;;;;;1.50;1.23;;;21.10;59.00;;;;;;4950704;28;92674;-67
2024/04/01 04:46:57;;;;;;;1.27;0.70;;;21.00;58.90;;;;;;4952163;28;92861;-71
2024/04/01 04:49:25;;;;;;;1.40;0.70;;;21.00;58.90;;;;;;4949873;28;93276;-67
2024/04/01 04:51:51;;;;;;;1.27;0.90;;;21.00;58.90;;;;;;4948450;28;92379;-67
2024/04/01 04:54:17;;;;;;;1.92;0.90;;;21.00;58.90;;;;;;4929853;28;93299;-67
2024/04/01 04:56:43;;;;;;;1.08;0.73;;;21.00;58.90;;;;;;4950511;28;92309;-67
2024/04/01 04:59:10;;;;;;;2.20;1.00;;;21.00;58.90;;;;;;4949609;28;92523;-66
2024/04/01 05:01:36;;;;;;;1.58;0.82;;;21.00;59.00;;;;;;4951988;28;92410;-67
2024/04/01 05:04:04;;;;;;;1.52;0.93;;;21.00;59.00;;;;;;4946016;28;94462;-66
2024/04/01 05:06:30;;;;;;;1.70;1.10;;;21.00;58.90;;;;;;4949194;28;93383;-66
2024/04/01 05:08:57;;;;;;;1.48;1.08;;;21.00;58.90;;;;;;4949161;28;92513;-67
2024/04/01 05:11:24;;;;;;;2.10;1.23;;;21.00;58.90;;;;;;4950750;28;92291;-68
2024/04/01 05:13:49;;;;;;;1.95;1.00;;;21.00;58.80;;;;;;4960373;28;94764;-66
2024/04/01 05:16:17;;;;;;;1.60;1.00;;;21.00;58.80;;;;;;4968618;28;94442;-71
2024/04/01 05:18:46;;;;;;;0.63;0.40;;;21.00;58.90;;;;;;4968887;28;92581;-69
2024/04/01 05:21:12;;;;;;;1.42;0.90;;;20.90;58.80;;;;;;4969933;28;92440;-68
2024/04/01 05:23:38;;;;;;;0.93;0.75;;;20.90;58.80;;;;;;4956411;28;93004;-69
2024/04/01 05:26:05;;;;;;;1.77;1.02;;;20.90;58.70;;;;;;4949121;28;92860;-68
2024/04/01 05:28:31;;;;;;;2.38;0.88;;;20.90;58.80;;;;;;4951376;28;92764;-68
2024/04/01 05:30:56;;;;;;;1.00;0.70;;;21.00;58.70;;;;;;4951401;28;91131;-68
2024/04/01 05:33:23;;;;;;;1.17;0.75;;;20.90;58.70;;;;;;4948497;28;93255;-69
2024/04/01 05:35:49;;;;;;;1.05;0.90;;;21.00;58.80;;;;;;4965023;28;93726;-67
2024/04/01 05:38:15;;;;;;;2.97;1.02;;;20.90;58.60;;;;;;4950424;28;93464;-67
2024/04/01 05:40:41;;;;;;;1.58;0.82;;;21.00;58.70;;;;;;4950664;28;92503;-68
2024/04/01 05:43:07;;;;;;;1.27;0.95;;;20.90;58.70;;;;;;4949715;28;93149;-69
2024/04/01 05:45:34;;;;;;;1.75;0.95;;;21.00;58.70;;;;;;4949408;28;93413;-67
2024/04/01 05:48:00;;;;;;;1.70;1.17;;;20.90;58.80;;;;;;4950097;28;92789;-67
2024/04/01 05:50:27;;;;;;;1.27;0.60;;;20.90;58.70;;;;;;4945712;28;92522;-67
2024/04/01 05:52:54;;;;;;;3.30;0.90;;;20.90;58.70;;;;;;4949111;28;93273;-71
2024/04/01 05:55:19;;;;;;;1.20;0.93;;;20.90;58.70;;;;;;4948122;28;92364;-69
2024/04/01 05:57:45;;;;;;;2.33;0.88;;;20.90;58.70;;;;;;4949821;28;92333;-69
2024/04/01 06:00:12;;;;;;;2.17;1.00;;;20.90;58.80;;;;;;4950316;28;92051;-67
2024/04/01 06:02:38;;;;;;;1.55;0.95;;;20.90;58.70;;;;;;4947554;28;94672;-70
2024/04/01 06:05:06;;;;;;;0.90;0.63;;;20.90;58.70;;;;;;4949061;28;93258;-69
2024/04/01 06:07:32;;;;;;;1.35;0.80;;;20.90;58.70;;;;;;4950779;28;92468;-67
2024/04/01 06:09:59;;;;;;;1.33;0.77;;;20.90;58.70;;;;;;4948790;28;92764;-69
2024/04/01 06:12:26;;;;;;;1.95;0.70;;;20.90;58.60;;;;;;4948468;28;92599;-68
2024/04/01 06:14:51;;;;;;;2.33;0.80;;;20.90;58.80;;;;;;4963186;28;93606;-69
2024/04/01 06:17:17;;;;;;;1.10;0.88;;;20.90;59.30;;;;;;4944947;28;92774;-68
2024/04/01 06:19:43;;;;;;;1.80;0.75;;;20.90;58.80;;;;;;4949441;28;91893;-69
2024/04/01 06:22:10;;;;;;;2.28;0.85;;;20.80;58.60;;;;;;4948238;28;92592;-71
2024/04/01 06:24:36;;;;;;;1.13;0.85;;;20.90;58.70;;;;;;4948181;28;92316;-67
2024/04/01 06:27:02;;;;;;;1.33;0.88;;;20.90;58.90;;;;;;4949405;28;93223;-65
2024/04/01 06:29:29;;;;;;;1.92;1.33;;;20.90;59.10;;;;;;4965249;28;92649;-65
2024/04/01 06:31:55;;;;;;;5.30;1.88;;;21.00;59.20;;;;;;4967245;28;94175;-66
2024/04/01 06:34:21;;;;;;;3.78;1.05;;;21.10;59.30;;;;;;4965857;28;92850;-70
2024/04/01 06:36:49;;;;;;;1.77;1.10;;;21.30;59.20;;;;;;4968627;28;91858;-68
2024/04/01 06:39:16;;;;;;;2.55;1.05;;;21.40;59.00;;;;;;4966883;28;92341;-67
2024/04/01 06:41:43;;;;;;;19.92;5.15;;;21.60;58.80;;;;;;4966256;28;92646;-67
2024/04/01 06:44:13;;;;;;;16.27;3.17;;;21.80;58.10;;;;;;4966830;28;92197;-67
2024/04/01 06:46:38;;;;;;;27.48;6.93;;;21.80;57.80;;;;;;4969263;28;92372;-70
2024/04/01 06:49:05;;;;;;;16.25;3.95;;;21.90;56.80;;;;;;4967954;28;92386;-68
2024/04/01 06:51:32;;;;;;;13.38;3.25;;;22.00;57.20;;;;;;4965654;28;94705;-69
2024/04/01 06:54:00;;;;;;;13.13;2.40;;;22.00;57.20;;;;;;4965336;28;93728;-68
2024/04/01 06:56:26;;;;;;;15.77;4.07;;;22.10;57.30;;;;;;4947628;28;92091;-70
2024/04/01 06:58:51;;;;;;;12.52;3.95;;;22.10;57.30;;;;;;4946449;28;92973;-67
2024/04/01 07:01:17;;;;;;;10.07;2.10;;;22.20;57.20;;;;;;4947260;28;92641;-68
2024/04/01 07:03:43;;;;;;;11.93;2.03;;;22.20;57.30;;;;;;4945083;28;92445;-71
2024/04/01 07:06:09;;;;;;;10.05;2.03;;;22.20;57.30;;;;;;4947770;28;92690;-70
2024/04/01 07:08:35;;;;;;;9.32;2.65;;;22.20;57.20;;;;;;4949932;28;91602;-67
2024/04/01 07:11:01;;;;;;;9.77;1.77;;;22.30;57.90;;;;;;4948343;28;93167;-68
2024/04/01 07:13:27;;;;;;;10.10;2.40;;;22.40;57.00;;;;;;4948731;28;92810;-66
2024/04/01 07:15:53;;;;;;;11.88;2.22;;;22.40;57.20;;;;;;4946090;28;92994;-67
2024/04/01 07:18:19;;;;;;;6.85;1.77;;;22.40;57.00;;;;;;4947550;28;92244;-68
2024/04/01 07:20:45;;;;;;;8.00;1.73;;;22.40;56.20;;;;;;4950471;28;93079;-68
2024/04/01 07:23:11;;;;;;;6.13;1.65;;;22.50;56.00;;;;;;4946134;28;93230;-68
2024/04/01 07:25:38;;;;;;;4.43;2.03;;;22.50;56.00;;;;;;4950729;28;92340;-69
2024/04/01 07:28:04;;;;;;;12.45;2.83;;;22.50;56.00;;;;;;4946289;28;92629;-68
2024/04/01 07:30:31;;;;;;;16.50;2.80;;;22.50;55.60;;;;;;4943786;28;95016;-66
2024/04/01 07:32:57;;;;;;;6.40;1.90;;;22.40;55.70;;;;;;4944280;28;92798;-68
2024/04/01 07:35:23;;;;;;;4.95;2.67;;;22.40;55.80;;;;;;4946368;28;92599;-67
2024/04/01 07:37:50;;;;;;;4.47;1.67;;;22.40;55.80;;;;;;4946803;28;92450;-66
2024/04/01 07:40:16;;;;;;;6.22;1.70;;;22.50;55.40;;;;;;4945309;28;93621;-66
2024/04/01 07:42:45;;;;;;;3.13;2.05;;;22.50;55.40;;;;;;4947004;28;93787;-67
2024/04/01 07:45:12;;;;;;;6.82;1.88;;;22.40;55.10;;;;;;4947524;28;92444;-70
2024/04/01 07:47:38;;;;;;;5.22;1.25;;;22.40;55.50;;;;;;4943603;28;92963;-70
2024/04/01 07:50:05;;;;;;;5.07;1.75;;;22.40;55.50;;;;;;4943873;28;93128;-69
2024/04/01 07:52:31;;;;;;;3.47;1.75;;;22.40;55.20;;;;;;4955173;28;94040;-67
2024/04/01 07:55:01;;;;;;;7.15;1.33;;;22.50;55.10;;;;;;4952759;28;92855;-69
2024/04/01 07:57:31;;;;;;;11.77;2.25;;;22.50;54.90;;;;;;4945300;28;91784;-69
2024/04/01 08:00:00;;;;;;;6.40;1.73;;;22.50;54.90;;;;;;4944768;28;93781;-66
2024/04/01 08:02:26;;;;;;;5.72;1.67;;;22.60;55.00;;;;;;4948717;28;93366;-66
2024/04/01 08:04:53;;;;;;;6.10;1.65;;;22.60;55.10;;;;;;4944619;28;93310;-66
2024/04/01 08:07:19;;;;;;;7.53;1.45;;;22.60;55.00;;;;;;4945991;28;92962;-68
2024/04/01 08:09:45;;;;;;;5.30;1.60;;;22.60;55.00;;;;;;4944518;28;93820;-68
2024/04/01 08:12:11;;;;;;;5.93;1.65;;;22.60;55.00;;;;;;4946103;28;92997;-66
2024/04/01 08:14:37;;;;;;;3.58;1.20;;;22.50;54.80;;;;;;4947129;28;92750;-66
2024/04/01 08:17:03;;;;;;;6.88;2.35;;;22.60;54.90;;;;;;4948077;28;92087;-66
2024/04/01 08:19:29;;;;;;;7.50;2.13;;;22.60;55.00;;;;;;4947607;28;93751;-66
2024/04/01 08:21:55;;;;;;;5.07;1.30;;;22.60;54.50;;;;;;4945476;28;92953;-69
2024/04/01 08:24:21;;;;;;;6.70;1.92;;;22.60;54.90;;;;;;4945630;28;92498;-67
2024/04/01 08:26:47;;;;;;;6.68;2.13;;;22.60;55.00;;;;;;4947997;28;92687;-66
2024/04/01 08:29:14;;;;;;;8.23;1.70;;;22.60;55.30;;;;;;4948770;28;93600;-68
2024/04/01 08:31:40;;;;;;;5.07;1.83;;;22.50;55.40;;;;;;4947631;28;93193;-66
2024/04/01 08:34:07;;;;;;;7.13;1.90;;;22.50;55.60;;;;;;4946504;28;92676;-69
2024/04/01 08:36:34;;;;;;;6.90;2.22;;;22.50;55.80;;;;;;4947406;28;92563;-69
2024/04/01 08:39:00;;;;;;;4.57;1.42;;;22.40;56.00;;;;;;4944267;28;96261;-68
2024/04/01 08:41:36;;;;;;;4.70;1.80;;;22.40;56.30;;;;;;4947567;28;92646;-69
2024/04/01 08:44:08;;;;;;;11.05;1.88;;;22.40;56.60;;;;;;4943996;28;91996;-67
2024/04/01 08:46:40;;;;;;;7.30;2.10;;;22.40;56.70;;;;;;4945521;28;91391;-68
2024/04/01 08:49:12;;;;;;;6.78;2.13;;;22.40;57.30;;;;;;4947691;28;93159;-69
2024/04/01 08:51:39;;;;;;;8.07;2.38;;;22.40;57.60;;;;;;4941667;28;93136;-68
2024/04/01 08:54:11;;;;;;;6.82;2.17;;;22.40;57.80;;;;;;4944214;28;94537;-69
2024/04/01 08:56:41;;;;;;;5.72;2.00;;;22.40;58.10;;;;;;4948477;28;92484;-68
2024/04/01 08:59:08;;;;;;;11.98;2.42;;;22.40;58.50;;;;;;4946861;28;93298;-68
2024/04/01 09:01:35;;;;;;;6.45;2.67;;;22.30;59.00;;;;;;4945903;28;92914;-69
2024/04/01 09:04:01;;;;;;;6.80;2.20;;;22.30;59.20;;;;;;4946000;28;92475;-69
2024/04/01 09:06:28;;;;;;;6.40;2.30;;;22.30;59.40;;;;;;4945177;28;91879;-68
2024/04/01 09:08:55;;;;;;;7.93;2.15;;;22.30;59.20;;;;;;4942827;28;93110;-68
2024/04/01 09:11:22;;;;;;;7.15;2.30;;;22.30;59.10;;;;;;4945835;28;93638;-68
2024/04/01 09:13:49;;;;;;;7.18;2.50;;;22.30;59.60;;;;;;4942618;28;92488;-68
2024/04/01 09:16:26;;;;;;;7.60;2.08;;;22.30;58.90;;;;;;4946267;28;92569;-69
2024/04/01 09:18:52;;;;;;;5.38;1.95;;;22.30;59.00;;;;;;4945380;28;94088;-68
2024/04/01 09:21:22;;;;;;;17.88;4.10;;;22.30;59.00;;;;;;4940687;28;93997;-68
2024/04/01 09:23:48;;;;;;;17.77;3.15;;;22.40;58.70;;;;;;4945909;28;92542;-69
2024/04/01 09:26:15;;;;;;;15.95;4.72;;;22.40;58.90;;;;;;4949988;28;92314;-68
2024/04/01 09:28:41;;;;;;;19.40;4.40;;;22.40;59.00;;;;;;4947463;28;93597;-68
2024/04/01 09:31:08;;;;;;;22.02;3.88;;;22.40;58.90;;;;;;4947964;28;93045;-68
2024/04/01 09:33:34;;;;;;;21.38;4.47;;;22.40;58.90;;;;;;4965197;28;92794;-68
2024/04/01 09:36:01;;;;;;;23.92;5.03;;;22.50;58.50;;;;;;4950392;28;91240;-69
2024/04/01 09:38:27;;;;;;;17.15;3.92;;;22.50;58.50;;;;;;4950830;28;93146;-69
2024/04/01 09:40:56;;;;;;;17.10;4.35;;;22.50;58.60;;;;;;4949292;28;92500;-69
2024/04/01 09:43:26;;;;;;;22.38;5.25;;;22.50;58.50;;;;;;4945879;28;93631;-68
2024/04/01 09:45:56;;;;;;;19.75;5.20;;;22.50;58.70;;;;;;4949849;28;92529;-70
2024/04/01 09:48:22;;;;;;;18.35;4.55;;;22.50;58.10;;;;;;4948209;28;93943;-69
2024/04/01 09:50:50;;;;;;;16.63;4.88;;;22.50;58.40;;;;;;4949582;28;92947;-66
2024/04/01 09:53:16;;;;;;;14.68;3.20;;;22.50;58.20;;;;;;4949407;28;92521;-68
2024/04/01 09:56:02;;;;;;;10.55;4.28;;;22.50;55.00;;;;;;4948404;28;92579;-67
2024/04/01 09:59:02;;;;;;;11.18;3.13;;;22.50;54.80;;;;;;4941736;28;94514;-67
2024/04/01 10:02:05;;;;;;;12.43;3.70;;;22.50;54.50;;;;;;4948680;28;92846;-68
2024/04/01 10:04:45;;;;;;;20.30;4.93;;;22.50;55.40;;;;;;4950422;28;92146;-69
2024/04/01 10:07:13;;;;;;;;;;;22.50;54.70;;;;;;4948972;28;92075;-67
2024/04/01 10:10:21;;;;;;;11.83;3.13;;;22.50;55.50;;;;;;4947856;28;94085;-67
2024/04/01 10:13:13;;;;;;;16.25;4.25;;;22.50;54.80;;;;;;4924775;28;93779;-70
2024/04/01 10:16:08;;;;;;;12.43;3.10;;;22.50;55.00;;;;;;4926549;28;92582;-68
2024/04/01 10:19:11;;;;;;;13.75;2.88;;;22.50;55.00;;;;;;4945558;28;92591;-67
2024/04/01 10:21:59;;;;;;;10.63;3.08;;;22.50;54.90;;;;;;4948683;28;92599;-68
2024/04/01 10:24:48;;;;;;;8.93;2.60;;;22.50;55.00;;;;;;4948957;28;92860;-69
2024/04/01 10:27:35;;;;;;;11.68;2.63;;;22.50;55.30;;;;;;4939750;28;92680;-67
2024/04/01 10:30:25;;;;;;;8.80;2.95;;;22.50;55.00;;;;;;4950185;28;91792;-68
2024/04/01 10:33:24;;;;;;;11.30;2.90;;;22.60;54.70;;;;;;4959443;28;93900;-69
2024/04/01 10:36:05;;;;;;;10.52;3.25;;;22.50;54.60;;;;;;4947683;28;93061;-67
2024/04/01 10:38:52;;;;;;;6.32;2.40;;;22.50;54.60;;;;;;4949325;28;93316;-69
2024/04/01 10:41:57;;;;;;;8.52;2.42;;;22.50;54.60;;;;;;4949356;28;92800;-67
2024/04/01 10:44:47;;;;;;;9.32;2.92;;;22.50;55.10;;;;;;4948194;28;97692;-67
2024/04/01 10:47:26;;;;;;;13.35;2.97;;;22.50;54.60;;;;;;4949712;28;97031;-67
2024/04/01 10:50:10;;;;;;;6.00;2.53;;;22.50;54.60;;;;;;4965504;28;92851;-67
2024/04/01 10:52:55;;;;;;;8.57;2.22;;;22.50;54.60;;;;;;4967411;28;92422;-67
2024/04/01 10:55:41;;;;;;;11.27;3.28;;;22.50;54.50;;;;;;4967580;28;93118;-67
2024/04/01 10:58:18;;;;;;;6.78;2.28;;;22.40;54.20;;;;;;4925539;28;92873;-68
2024/04/01 11:00:47;;;;;;;7.80;2.35;;;22.10;54.70;;;;;;4955247;28;92616;-68
2024/04/01 11:03:25;;;;;;;8.07;2.40;;;22.00;55.00;;;;;;4967191;28;92383;-67
2024/04/01 11:06:21;;;;;;;9.43;3.03;;;21.90;55.30;;;;;;4966891;28;93668;-67
2024/04/01 11:09:21;;;;;;;6.45;2.10;;;21.90;55.50;;;;;;4967152;28;93717;-68
2024/04/01 11:12:20;;;;;;;6.40;2.30;;;21.80;55.30;;;;;;4967248;28;92421;-67
2024/04/01 11:14:49;;;;;;;;;;;21.90;55.40;;;;;;4945217;28;91919;-67
2024/04/01 11:17:16;;;;;;;;;;;22.00;55.10;;;;;;4951926;28;92940;-69
2024/04/01 11:19:56;;;;;;;8.93;2.85;;;22.00;55.00;;;;;;4942645;28;92962;-69
2024/04/01 11:22:43;;;;;;;7.97;2.10;;;22.10;54.90;;;;;;4947300;28;92315;-68
2024/04/01 11:25:41;;;;;;;11.90;2.85;;;22.20;54.90;;;;;;4947588;28;91594;-68
2024/04/01 11:28:13;;;;;;;9.00;3.05;;;22.20;54.90;;;;;;4957315;28;95255;-69
2024/04/01 11:30:39;;;;;;;10.27;2.10;;;22.30;54.60;;;;;;4948984;28;93286;-68
2024/04/01 11:33:08;;;;;;;12.75;2.40;;;22.30;54.60;;;;;;4944678;28;93322;-68
2024/04/01 11:35:46;;;;;;;6.55;1.92;;;22.30;55.10;;;;;;4949307;28;92312;-71
2024/04/01 11:38:44;;;;;;;9.35;2.58;;;22.40;55.00;;;;;;4947734;28;97742;-68
2024/04/01 11:41:13;;;;;;;15.80;3.42;;;22.40;54.50;;;;;;4943149;28;97381;-71
2024/04/01 11:43:40;;;;;;;;;;;22.40;53.90;;;;;;4959254;28;92628;-64
2024/04/01 11:46:10;;;;;;;5.55;1.98;;;22.20;56.30;;;;;;4959575;28;92425;-68
2024/04/01 11:48:36;;;;;;;8.15;2.38;;;22.00;60.00;;;;;;4954789;28;93584;-68
2024/04/01 11:51:02;;;;;;;6.82;1.95;;;22.10;62.50;;;;;;4944951;28;93145;-69
2024/04/01 11:53:38;;;;;;;12.07;2.00;;;22.20;61.60;;;;;;4946935;28;92588;-69
2024/04/01 11:56:04;;;;;;;6.03;2.35;;;22.20;58.40;;;;;;4946451;28;92032;-68
2024/04/01 11:58:30;;;;;;;8.82;2.20;;;22.30;57.80;;;;;;4947455;28;94007;-69
2024/04/01 12:01:00;;;;;;;7.82;2.00;;;22.40;57.50;;;;;;4945860;28;94618;-69
2024/04/01 12:03:46;;;;;;;5.75;1.60;;;22.40;57.00;;;;;;4946367;28;92182;-73
2024/04/01 12:06:18;;;;;;;4.80;1.70;;;22.30;56.70;;;;;;4941060;28;92318;-68
2024/04/01 12:08:44;;;;;;;3.75;1.42;;;22.30;56.70;;;;;;4946895;28;92629;-73
2024/04/01 12:11:12;;;;;;;4.32;1.83;;;22.10;56.40;;;;;;4947628;28;92567;-69
2024/04/01 12:13:42;;;;;;;9.52;2.22;;;22.00;56.50;;;;;;4962463;28;92951;-68
2024/04/01 12:16:11;;;;;;;3.42;1.35;;;22.10;56.20;;;;;;4945931;28;92126;-69
2024/04/01 12:18:44;;;;;;;6.35;2.28;;;22.20;55.60;;;;;;4947108;28;93144;-69
2024/04/01 12:21:11;;;;;;;2.90;1.55;;;22.30;55.30;;;;;;4960595;28;93596;-66
2024/04/01 12:23:38;;;;;;;6.68;1.83;;;22.40;55.00;;;;;;4947244;28;93335;-67
2024/04/01 12:26:11;;;;;;;4.70;1.80;;;22.40;54.80;;;;;;4946172;28;92621;-67
2024/04/01 12:28:38;;;;;;;4.10;1.95;;;22.50;54.50;;;;;;4939107;28;94167;-69
2024/04/01 12:31:05;;;;;;;4.97;1.90;;;22.50;54.10;;;;;;4944639;28;94104;-73
2024/04/01 12:33:31;;;;;;;5.55;1.83;;;22.60;53.90;;;;;;4929952;28;92579;-72
2024/04/01 12:35:59;;;;;;;6.35;2.28;;;22.60;53.50;;;;;;4927188;28;92095;-69
2024/04/01 12:38:32;;;;;;;3.92;2.10;;;22.70;53.50;;;;;;4925913;28;95342;-68
2024/04/01 12:41:00;;;;;;;4.82;1.75;;;22.70;53.10;;;;;;4925157;28;94020;-67
2024/04/01 12:43:27;;;;;;;5.35;1.98;;;22.70;53.20;;;;;;4928750;28;91894;-65
2024/04/01 12:45:57;;;;;;;4.00;2.17;;;22.70;53.10;;;;;;4926257;28;91898;-66
2024/04/01 12:48:25;;;;;;;6.10;2.00;;;22.70;52.80;;;;;;4924318;28;94489;-65
2024/04/01 12:50:53;;;;;;;;;;;22.70;52.60;;;;;;4924788;28;93850;-69
2024/04/01 12:53:47;;;;;;;3.55;1.50;;;22.70;52.60;;;;;;4928938;28;92472;-68
2024/04/01 12:56:42;;;;;;;4.60;1.80;;;22.80;52.50;;;;;;4942895;28;92082;-68
2024/04/01 12:59:29;;;;;;;3.47;1.75;;;22.70;52.60;;;;;;4946207;28;98408;-71
2024/04/01 13:02:21;;;;;;;2.17;1.42;;;22.50;52.80;;;;;;4962698;28;92894;-67